28.5°F
Current conditions from King Hill
Updated every 5 minutes
 
  Sunday April 20, 2014

Station Historical Data
Daily Summary for March 21, 2011 Units:  Metric    English   Both
« Previous Day
Next Day »
Daily Weekly Monthly Yearly Custom
  High: Low: Average:
Temperature: 2.4 °C -2.3 °C 0.4 °C
Dew Point: -0.2 °C -11.6 °C -4.8 °C
Humidity: 94% 38% 71%
Wind Speed: 14.5km/h 0km/h 6.6km/h
Wind Gust: 33.8km/h - -
Wind- - SSW
Pressure: 1029 hPa 1008.4 hPa -
Precipitation: 0 mm    
Historical Graphs
 
 
Tabular Data for March 21, 2011
Time Temperature Dew Point Pressure Wind Wind Speed Wind Gust Humidity Daily Rainfall
00:04 -1.8 °C -8.1 °C 1029 hPa Calm   4.8 km/h 62% 0 mm
00:09 -1.8 °C -8.8 °C 1029 hPa Calm   4.8 km/h 59% 0 mm
00:14 -1.9 °C -8.2 °C 1028.7 hPa Calm   4.8 km/h 62% 0 mm
00:19 -1.9 °C -8.1 °C 1028.7 hPa Calm   1.6 km/h 63% 0 mm
00:24 -2 °C -8.5 °C 1028.7 hPa Calm     61% 0 mm
00:29 -2.1 °C -8.8 °C 1028.7 hPa Calm     60% 0 mm
00:34 -2.1 °C -9 °C 1028.3 hPa Calm     59% 0 mm
00:39 -2.1 °C -8.4 °C 1028.3 hPa Calm     62% 0 mm
00:44 -2.2 °C -8.7 °C 1028.3 hPa Calm     61% 0 mm
00:49 -2.2 °C -8.4 °C 1028.3 hPa Calm     62% 0 mm
00:54 -2.2 °C -8.9 °C 1028.3 hPa Calm     60% 0 mm
00:59 -2.2 °C -9.4 °C 1028.3 hPa Calm   4.8 km/h 58% 0 mm
01:04 -2.3 °C -9.7 °C 1028 hPa Calm   4.8 km/h 57% 0 mm
01:09 -2.3 °C -9.2 °C 1028 hPa Calm     59% 0 mm
01:14 -2.2 °C -8.7 °C 1027.7 hPa Calm     61% 0 mm
01:19 -2.2 °C -9.6 °C 1027.7 hPa Calm     57% 0 mm
01:24 -2.2 °C -9.1 °C 1027.7 hPa Calm     59% 0 mm
01:30 -2.1 °C -8.8 °C 1027.7 hPa Calm     60% 0 mm
01:34 -2.1 °C -9.3 °C 1027.7 hPa Calm   3.2 km/h 58% 0 mm
01:39 -2.2 °C -9.3 °C 1028 hPa Calm   3.2 km/h 58% 0 mm
01:44 -2.3 °C -8.6 °C 1027.7 hPa Calm   1.6 km/h 62% 0 mm
01:49 -2.3 °C -8.2 °C 1027.7 hPa Calm   1.6 km/h 64% 0 mm
01:54 -2.3 °C -8.6 °C 1027.7 hPa Calm     62% 0 mm
01:59 -2.2 °C -9.2 °C 1027.7 hPa Calm   3.2 km/h 59% 0 mm
02:04 -1.8 °C -9.4 °C 1027.7 hPa SSE 1.6 km/h 4.8 km/h 56% 0 mm
02:09 -1.1 °C -10.2 °C 1027.7 hPa South 3.2 km/h 9.7 km/h 50% 0 mm
02:14 0.1 °C -9.7 °C 1027.3 hPa South 3.2 km/h 11.3 km/h 48% 0 mm
02:19 0.8 °C -10.4 °C 1027.3 hPa SSW 3.2 km/h 11.3 km/h 43% 0 mm
02:24 1.2 °C -9.7 °C 1027.3 hPa Calm   9.7 km/h 44% 0 mm
02:29 1.1 °C -9.8 °C 1027.3 hPa SW 1.6 km/h 9.7 km/h 44% 0 mm
02:34 0.8 °C -10.1 °C 1027.7 hPa SW 1.6 km/h 9.7 km/h 44% 0 mm
02:39 0.6 °C -9.7 °C 1027.7 hPa SW 1.6 km/h 6.4 km/h 46% 0 mm
02:44 0.4 °C -9.8 °C 1027.7 hPa Calm   6.4 km/h 46% 0 mm
02:49 0.3 °C -10.2 °C 1027.7 hPa Calm   4.8 km/h 45% 0 mm
02:54 0.2 °C -10.3 °C 1027.3 hPa Calm   4.8 km/h 45% 0 mm
02:59 0.2 °C -10.3 °C 1027.3 hPa SW 1.6 km/h 4.8 km/h 45% 0 mm
03:04 0.2 °C -10.4 °C 1027 hPa SW 1.6 km/h 6.4 km/h 45% 0 mm
03:09 0.1 °C -8.6 °C 1027 hPa Calm   6.4 km/h 52% 0 mm
03:14 0 °C -9.2 °C 1026.6 hPa Calm   3.2 km/h 50% 0 mm
03:19 -0.2 °C -9.1 °C 1026.3 hPa SSW 1.6 km/h 6.4 km/h 51% 0 mm
03:24 0.1 °C -10.2 °C 1026.3 hPa SSW 3.2 km/h 11.3 km/h 46% 0 mm
03:29 0.8 °C -10.9 °C 1026 hPa South 4.8 km/h 14.5 km/h 41% 0 mm
03:34 1.2 °C -10.3 °C 1025.6 hPa South 1.6 km/h 14.5 km/h 42% 0 mm
03:39 1.3 °C -10.2 °C 1025.6 hPa SE 1.6 km/h 9.7 km/h 42% 0 mm
03:44 1.3 °C -10.8 °C 1025.3 hPa SSE 1.6 km/h 11.3 km/h 40% 0 mm
03:49 1.4 °C -11.3 °C 1024.9 hPa SSE 1.6 km/h 11.3 km/h 38% 0 mm
03:54 1.4 °C -11.1 °C 1024.9 hPa South 1.6 km/h 8 km/h 39% 0 mm
03:59 1.3 °C -11.4 °C 1024.9 hPa South 3.2 km/h 8 km/h 38% 0 mm
04:04 1.2 °C -10.9 °C 1024.6 hPa Calm   8 km/h 40% 0 mm
04:09 0.9 °C -10.6 °C 1024.6 hPa Calm   4.8 km/h 42% 0 mm
04:14 0.6 °C -10.6 °C 1024.6 hPa Calm   3.2 km/h 43% 0 mm
04:19 0.2 °C -10.7 °C 1024.6 hPa Calm   1.6 km/h 44% 0 mm
04:24 -0.2 °C -9.9 °C 1024.6 hPa Calm   1.6 km/h 48% 0 mm
04:29 -0.4 °C -10.3 °C 1024.3 hPa Calm   4.8 km/h 47% 0 mm
04:34 -0.5 °C -10.2 °C 1024.3 hPa Calm   4.8 km/h 48% 0 mm
04:39 -0.2 °C -11.6 °C 1023.9 hPa South 3.2 km/h 8 km/h 42% 0 mm
04:44 0.7 °C -11.3 °C 1023.9 hPa SSW 6.4 km/h 11.3 km/h 40% 0 mm
04:49 1.3 °C -11.2 °C 1023.2 hPa South 6.4 km/h 19.3 km/h 39% 0 mm
04:54 1.6 °C -10.9 °C 1023.6 hPa SSW 8 km/h 19.3 km/h 39% 0 mm
04:59 1.8 °C -10.7 °C 1023.2 hPa South 9.7 km/h 19.3 km/h 39% 0 mm
05:04 1.7 °C -10.5 °C 1023.2 hPa SSW 8 km/h 19.3 km/h 40% 0 mm
05:09 1.6 °C -10.3 °C 1023.2 hPa SSW 8 km/h 17.7 km/h 41% 0 mm
05:14 1.4 °C -10.4 °C 1023.2 hPa SSW 6.4 km/h 17.7 km/h 41% 0 mm
05:19 1.4 °C -10.1 °C 1023.2 hPa SSW 6.4 km/h 20.9 km/h 42% 0 mm
05:24 1.6 °C -10.3 °C 1022.9 hPa SSW 8 km/h 20.9 km/h 41% 0 mm
05:29 1.7 °C -9.9 °C 1022.9 hPa SSW 6.4 km/h 20.9 km/h 42% 0 mm
05:34 1.6 °C -10 °C 1022.6 hPa SSW 8 km/h 20.9 km/h 42% 0 mm
05:39 1.6 °C -10 °C 1022.6 hPa SSW 6.4 km/h 16.1 km/h 42% 0 mm
05:44 1.6 °C -9.9 °C 1022.6 hPa SSW 9.7 km/h 20.9 km/h 42% 0 mm
05:49 1.7 °C -9.6 °C 1022.6 hPa SSW 8 km/h 20.9 km/h 43% 0 mm
05:54 1.7 °C -9.6 °C 1022.6 hPa SSW 8 km/h 17.7 km/h 43% 0 mm
05:59 1.8 °C -9.5 °C 1022.2 hPa SSW 9.7 km/h 19.3 km/h 43% 0 mm
06:04 1.9 °C -9.1 °C 1022.2 hPa SSW 11.3 km/h 22.5 km/h 44% 0 mm
06:09 1.9 °C -9.1 °C 1021.9 hPa SSW 11.3 km/h 22.5 km/h 44% 0 mm
06:14 1.9 °C -8.4 °C 1021.6 hPa SSW 8 km/h 24.1 km/h 46% 0 mm
06:19 2 °C -8.4 °C 1021.2 hPa SSW 11.3 km/h 24.1 km/h 46% 0 mm
06:24 2 °C -8.4 °C 1021.2 hPa South 6.4 km/h 22.5 km/h 46% 0 mm
06:30 2 °C -8.4 °C 1021.2 hPa South 6.4 km/h 17.7 km/h 46% 0 mm
06:39 2 °C -8.4 °C 1020.9 hPa South 8 km/h 19.3 km/h 46% 0 mm
06:44 1.9 °C -8.4 °C 1020.9 hPa SSW 6.4 km/h 14.5 km/h 46% 0 mm
06:49 1.9 °C -8.2 °C 1020.9 hPa SSW 4.8 km/h 11.3 km/h 47% 0 mm
06:54 1.9 °C -8.2 °C 1020.9 hPa SSW 6.4 km/h 17.7 km/h 47% 0 mm
06:59 1.9 °C -7.9 °C 1021.2 hPa SSW 8 km/h 17.7 km/h 48% 0 mm
07:04 1.8 °C -7.8 °C 1021.2 hPa South 1.6 km/h 14.5 km/h 49% 0 mm
07:09 1.7 °C -7.8 °C 1020.9 hPa SSW 1.6 km/h 8 km/h 49% 0 mm
07:14 1.7 °C -7.9 °C 1020.9 hPa South 1.6 km/h 8 km/h 49% 0 mm
07:19 1.7 °C -7.9 °C 1021.2 hPa SSW 1.6 km/h 8 km/h 49% 0 mm
07:24 1.7 °C -7.8 °C 1021.2 hPa SSW 3.2 km/h 11.3 km/h 49% 0 mm
07:29 1.8 °C -7.8 °C 1020.9 hPa SSW 3.2 km/h 11.3 km/h 49% 0 mm
07:34 1.8 °C -7.6 °C 1020.9 hPa SSW 1.6 km/h 11.3 km/h 50% 0 mm
07:39 1.7 °C -7.7 °C 1020.9 hPa South 3.2 km/h 9.7 km/h 50% 0 mm
07:44 1.6 °C -7.2 °C 1020.5 hPa Calm   9.7 km/h 52% 0 mm
07:49 1.6 °C -7.9 °C 1020.2 hPa South 3.2 km/h 8 km/h 49% 0 mm
07:54 1.6 °C -7.4 °C 1020.2 hPa South 1.6 km/h 8 km/h 51% 0 mm
07:59 1.7 °C -7.7 °C 1019.9 hPa South 1.6 km/h 9.7 km/h 50% 0 mm
08:04 1.9 °C -7.7 °C 1019.9 hPa South 3.2 km/h 11.3 km/h 49% 0 mm
08:09 2 °C -7.9 °C 1019.5 hPa South 3.2 km/h 11.3 km/h 48% 0 mm
08:14 2.1 °C -7.8 °C 1019.5 hPa SSE 1.6 km/h 11.3 km/h 48% 0 mm
08:19 2.2 °C -7.7 °C 1019.5 hPa South 3.2 km/h 11.3 km/h 48% 0 mm
08:24 2.2 °C -7.4 °C 1019.5 hPa SSW 1.6 km/h 9.7 km/h 49% 0 mm
08:29 2.2 °C -7.4 °C 1019.5 hPa South 4.8 km/h 11.3 km/h 49% 0 mm
08:34 2.3 °C -7.3 °C 1019.2 hPa South 8 km/h 17.7 km/h 49% 0 mm
08:39 2.3 °C -7.1 °C 1019.2 hPa South 3.2 km/h 17.7 km/h 50% 0 mm
08:44 2.3 °C -7.1 °C 1019.2 hPa Calm   11.3 km/h 50% 0 mm
08:49 2.3 °C -6.5 °C 1019.2 hPa South 1.6 km/h 9.7 km/h 52% 0 mm
08:54 2.3 °C -6.5 °C 1019.2 hPa SSW 8 km/h 11.3 km/h 52% 0 mm
08:59 2.4 °C -6.2 °C 1019.2 hPa SSW 4.8 km/h 14.5 km/h 53% 0 mm
09:04 2.4 °C -6.2 °C 1019.2 hPa SSW 4.8 km/h 14.5 km/h 53% 0 mm
09:09 2.4 °C -6.2 °C 1019.2 hPa SSW 4.8 km/h 12.9 km/h 53% 0 mm
09:14 2.4 °C -6.2 °C 1019.2 hPa SSW 4.8 km/h 9.7 km/h 53% 0 mm
09:19 2.4 °C -6 °C 1019.2 hPa SSW 6.4 km/h 11.3 km/h 54% 0 mm
09:24 2.3 °C -6 °C 1019.2 hPa SW 3.2 km/h 17.7 km/h 54% 0 mm
09:29 2.3 °C -6.3 °C 1019.2 hPa SSW 9.7 km/h 20.9 km/h 53% 0 mm
09:35 2.2 °C -6.4 °C 1019.2 hPa SSW 6.4 km/h 20.9 km/h 53% 0 mm
09:39 2.2 °C -6.4 °C 1019.2 hPa South 6.4 km/h 17.7 km/h 53% 0 mm
09:44 1.6 °C -3.8 °C 1019.5 hPa South 12.9 km/h 29 km/h 67% 0 mm
09:49 0.7 °C -3 °C 1019.5 hPa SSW 11.3 km/h 29 km/h 76% 0 mm
09:54 0.3 °C -2.6 °C 1019.9 hPa SSW 4.8 km/h 29 km/h 81% 0 mm
09:59 0.2 °C -2.3 °C 1019.9 hPa SSW 12.9 km/h 24.1 km/h 83% 0 mm
10:04 0.1 °C -2.3 °C 1019.5 hPa SSW 4.8 km/h 24.1 km/h 84% 0 mm
10:09 -0.1 °C -2.5 °C 1019.5 hPa South 8 km/h 20.9 km/h 84% 0 mm
10:14 -0.3 °C -2.7 °C 1019.5 hPa South 8 km/h 16.1 km/h 84% 0 mm
10:19 -0.4 °C -2.8 °C 1019.5 hPa South 8 km/h 16.1 km/h 84% 0 mm
10:24 -0.6 °C -2.9 °C 1019.2 hPa South 6.4 km/h 16.1 km/h 84% 0 mm
10:29 -0.6 °C -2.8 °C 1019.2 hPa South 8 km/h 16.1 km/h 85% 0 mm
10:35 -0.7 °C -2.9 °C 1019.2 hPa South 6.4 km/h 12.9 km/h 85% 0 mm
10:39 -0.7 °C -2.8 °C 1019.2 hPa South 8 km/h 16.1 km/h 86% 0 mm
10:44 -0.7 °C -2.8 °C 1018.8 hPa South 6.4 km/h 16.1 km/h 86% 0 mm
10:49 -0.7 °C -2.7 °C 1018.5 hPa South 3.2 km/h 12.9 km/h 86% 0 mm
10:54 -0.7 °C -2.6 °C 1018.5 hPa SSE 3.2 km/h 12.9 km/h 87% 0 mm
10:59 -0.6 °C -2.5 °C 1018.2 hPa South 4.8 km/h 19.3 km/h 87% 0 mm
11:04 -0.6 °C -2.5 °C 1018.2 hPa South 4.8 km/h 19.3 km/h 87% 0 mm
11:09 -0.6 °C -2.4 °C 1017.8 hPa South 3.2 km/h 12.9 km/h 87% 0 mm
11:14 -0.5 °C -2.4 °C 1017.8 hPa SSE 4.8 km/h 12.9 km/h 87% 0 mm
11:19 -0.4 °C -2.2 °C 1017.5 hPa South 9.7 km/h 16.1 km/h 88% 0 mm
11:24 -0.4 °C -2.3 °C 1017.5 hPa South 3.2 km/h 17.7 km/h 87% 0 mm
11:29 -0.4 °C -2.1 °C 1017.2 hPa SSW 3.2 km/h 17.7 km/h 88% 0 mm
11:34 -0.4 °C -2.3 °C 1017.2 hPa South 9.7 km/h 25.7 km/h 87% 0 mm
11:39 -0.6 °C -2.4 °C 1016.8 hPa South 11.3 km/h 25.7 km/h 87% 0 mm
11:44 -0.7 °C -2.6 °C 1016.8 hPa South 11.3 km/h 30.6 km/h 87% 0 mm
11:49 -0.7 °C -2.6 °C 1016.5 hPa South 6.4 km/h 30.6 km/h 87% 0 mm
11:54 -0.8 °C -2.7 °C 1016.5 hPa South 6.4 km/h 19.3 km/h 87% 0 mm
11:59 -0.8 °C -2.7 °C 1016.1 hPa South 9.7 km/h 19.3 km/h 87% 0 mm
12:04 -0.8 °C -2.7 °C 1016.1 hPa South 11.3 km/h 20.9 km/h 87% 0 mm
12:09 -0.8 °C -2.7 °C 1015.8 hPa South 9.7 km/h 22.5 km/h 87% 0 mm
12:14 -0.8 °C -2.7 °C 1015.8 hPa South 9.7 km/h 22.5 km/h 87% 0 mm
12:19 -0.8 °C -2.7 °C 1015.8 hPa South 11.3 km/h 19.3 km/h 87% 0 mm
12:24 -0.7 °C -2.4 °C 1015.8 hPa South 6.4 km/h 27.4 km/h 88% 0 mm
12:30 -0.7 °C -2.4 °C 1015.5 hPa South 3.2 km/h 27.4 km/h 88% 0 mm
12:34 -0.6 °C -2.3 °C 1015.5 hPa South 6.4 km/h 17.7 km/h 88% 0 mm
12:39 -0.6 °C -2.3 °C 1015.1 hPa South 11.3 km/h 24.1 km/h 88% 0 mm
12:44 -0.4 °C -2.2 °C 1015.1 hPa South 9.7 km/h 24.1 km/h 88% 0 mm
12:49 -0.3 °C -2.1 °C 1014.8 hPa South 4.8 km/h 17.7 km/h 88% 0 mm
12:55 -0.3 °C -2.2 °C 1014.8 hPa South 9.7 km/h 17.7 km/h 87% 0 mm
12:59 -0.3 °C -2.2 °C 1014.4 hPa South 8 km/h 33.8 km/h 87% 0 mm
13:04 -0.2 °C -2.1 °C 1014.4 hPa SSW 6.4 km/h 33.8 km/h 87% 0 mm
13:09 -0.2 °C -2.1 °C 1014.4 hPa South 12.9 km/h 24.1 km/h 87% 0 mm
13:14 -0.1 °C -2.2 °C 1014.1 hPa South 14.5 km/h 25.7 km/h 86% 0 mm
13:19 0.1 °C -1.9 °C 1013.8 hPa South 6.4 km/h 25.7 km/h 86% 0 mm
13:24 0.3 °C -1.8 °C 1013.4 hPa South 12.9 km/h 25.7 km/h 86% 0 mm
13:29 0.3 °C -1.9 °C 1013.8 hPa South 11.3 km/h 25.7 km/h 85% 0 mm
13:34 0.3 °C -1.9 °C 1013.4 hPa South 12.9 km/h 29 km/h 85% 0 mm
13:39 0.3 °C -1.9 °C 1013.4 hPa South 8 km/h 29 km/h 85% 0 mm
13:44 0.3 °C -2.1 °C 1013.4 hPa South 9.7 km/h 19.3 km/h 84% 0 mm
13:49 0.3 °C -2.2 °C 1013.1 hPa South 11.3 km/h 22.5 km/h 83% 0 mm
13:54 0.4 °C -2.3 °C 1013.1 hPa South 11.3 km/h 29 km/h 82% 0 mm
13:59 0.5 °C -2.4 °C 1013.4 hPa South 8 km/h 29 km/h 81% 0 mm
14:04 0.6 °C -2.5 °C 1013.4 hPa South 9.7 km/h 24.1 km/h 80% 0 mm
14:09 0.6 °C -2.6 °C 1013.4 hPa SSW 11.3 km/h 20.9 km/h 79% 0 mm
14:14 0.6 °C -2.6 °C 1013.1 hPa South 9.7 km/h 20.9 km/h 79% 0 mm
14:19 0.7 °C -2.7 °C 1013.1 hPa SSW 12.9 km/h 22.5 km/h 78% 0 mm
14:24 0.7 °C -2.6 °C 1012.8 hPa South 6.4 km/h 22.5 km/h 79% 0 mm
14:29 0.7 °C -2.7 °C 1012.8 hPa South 8 km/h 20.9 km/h 78% 0 mm
14:34 0.7 °C -2.7 °C 1012.8 hPa South 9.7 km/h 20.9 km/h 78% 0 mm
14:39 0.7 °C -2.7 °C 1012.8 hPa South 4.8 km/h 17.7 km/h 78% 0 mm
14:44 0.7 °C -2.8 °C 1012.4 hPa South 8 km/h 22.5 km/h 77% 0 mm
14:49 0.7 °C -2.7 °C 1012.4 hPa South 8 km/h 22.5 km/h 78% 0 mm
14:54 0.7 °C -2.9 °C 1012.4 hPa South 8 km/h 19.3 km/h 77% 0 mm
14:59 0.7 °C -2.9 °C 1012.4 hPa South 9.7 km/h 22.5 km/h 77% 0 mm
15:04 0.7 °C -2.8 °C 1012.1 hPa South 9.7 km/h 22.5 km/h 77% 0 mm
15:09 0.7 °C -2.8 °C 1011.7 hPa SSE 9.7 km/h 22.5 km/h 77% 0 mm
15:14 0.7 °C -2.8 °C 1011.7 hPa South 8 km/h 22.5 km/h 77% 0 mm
15:19 0.7 °C -2.9 °C 1011.4 hPa South 9.7 km/h 22.5 km/h 77% 0 mm
15:24 0.7 °C -2.8 °C 1011.4 hPa South 9.7 km/h 22.5 km/h 77% 0 mm
15:29 0.7 °C -2.8 °C 1011.4 hPa SSW 8 km/h 17.7 km/h 77% 0 mm
15:34 0.8 °C -2.9 °C 1011.4 hPa South 12.9 km/h 24.1 km/h 76% 0 mm
15:39 0.8 °C -2.8 °C 1011.1 hPa South 8 km/h 24.1 km/h 77% 0 mm
15:44 0.8 °C -2.9 °C 1011.1 hPa South 9.7 km/h 24.1 km/h 76% 0 mm
15:49 0.8 °C -2.9 °C 1010.7 hPa South 9.7 km/h 24.1 km/h 76% 0 mm
15:54 0.8 °C -2.9 °C 1010.7 hPa South 12.9 km/h 20.9 km/h 76% 0 mm
15:59 0.9 °C -2.9 °C 1010.4 hPa South 6.4 km/h 20.9 km/h 76% 0 mm
16:04 0.9 °C -2.9 °C 1010 hPa SSW 12.9 km/h 29 km/h 76% 0 mm
16:09 0.9 °C -2.9 °C 1010 hPa South 9.7 km/h 29 km/h 76% 0 mm
16:14 0.9 °C -2.9 °C 1009.7 hPa South 8 km/h 22.5 km/h 76% 0 mm
16:19 0.9 °C -2.7 °C 1009.7 hPa South 8 km/h 24.1 km/h 77% 0 mm
16:24 0.9 °C -2.7 °C 1009.4 hPa South 14.5 km/h 30.6 km/h 77% 0 mm
16:29 0.9 °C -2.6 °C 1009.4 hPa South 8 km/h 30.6 km/h 77% 0 mm
16:34 1.1 °C -2.7 °C 1009 hPa SSW 6.4 km/h 20.9 km/h 76% 0 mm
16:39 1.1 °C -2.7 °C 1009 hPa South 14.5 km/h 27.4 km/h 76% 0 mm
16:44 1 °C -2.8 °C 1009 hPa South 8 km/h 27.4 km/h 76% 0 mm
16:49 1 °C -2.6 °C 1009 hPa South 11.3 km/h 25.7 km/h 77% 0 mm
16:54 1 °C -2.6 °C 1009 hPa SSW 9.7 km/h 25.7 km/h 77% 0 mm
16:59 1 °C -2.6 °C 1009 hPa South 12.9 km/h 22.5 km/h 77% 0 mm
17:04 0.9 °C -2.4 °C 1009 hPa South 4.8 km/h 24.1 km/h 78% 0 mm
17:09 0.9 °C -2.5 °C 1009 hPa South 8 km/h 24.1 km/h 78% 0 mm
17:14 0.8 °C -2.4 °C 1009 hPa South 11.3 km/h 22.5 km/h 79% 0 mm
17:19 0.8 °C -2.4 °C 1009 hPa SSW 9.7 km/h 22.5 km/h 79% 0 mm
17:24 0.7 °C -2.3 °C 1009 hPa SSW 8 km/h 17.7 km/h 80% 0 mm
17:30 0.7 °C -2.3 °C 1009 hPa South 9.7 km/h 20.9 km/h 80% 0 mm
17:39 0.7 °C -2.3 °C 1009.7 hPa South 8 km/h 20.9 km/h 80% 0 mm
17:44 0.7 °C -2.2 °C 1010 hPa SSW 9.7 km/h 19.3 km/h 81% 0 mm
17:49 0.6 °C -2.2 °C 1010.4 hPa SSW 6.4 km/h 19.3 km/h 82% 0 mm
17:54 0.5 °C -2.1 °C 1010.4 hPa SSW 4.8 km/h 12.9 km/h 83% 0 mm
17:59 0.4 °C -2 °C 1010 hPa SSW 4.8 km/h 12.9 km/h 84% 0 mm
18:04 0.3 °C -2.1 °C 1010 hPa SSW 6.4 km/h 12.9 km/h 84% 0 mm
18:09 0.2 °C -2.1 °C 1010 hPa South 6.4 km/h 14.5 km/h 85% 0 mm
18:14 0.1 °C -1.8 °C 1009.7 hPa SSW 6.4 km/h 14.5 km/h 87% 0 mm
18:19 0 °C -1.9 °C 1009.7 hPa SSE 6.4 km/h 14.5 km/h 87% 0 mm
18:24 -0.1 °C -1.8 °C 1009.4 hPa South 4.8 km/h 12.9 km/h 88% 0 mm
18:30 -0.1 °C -1.8 °C 1009.4 hPa South 4.8 km/h 11.3 km/h 88% 0 mm
18:34 -0.1 °C -1.7 °C 1009.4 hPa South 6.4 km/h 12.9 km/h 89% 0 mm
18:39 -0.1 °C -1.7 °C 1009.4 hPa South 6.4 km/h 14.5 km/h 89% 0 mm
18:44 -0.1 °C -1.7 °C 1009.4 hPa South 6.4 km/h 17.7 km/h 89% 0 mm
18:49 -0.1 °C -1.7 °C 1009.4 hPa South 9.7 km/h 20.9 km/h 89% 0 mm
18:55 -0.1 °C -1.7 °C 1009.4 hPa South 8 km/h 20.9 km/h 89% 0 mm
19:04 -0.1 °C -1.6 °C 1009.4 hPa South 6.4 km/h 12.9 km/h 90% 0 mm
19:09 -0.1 °C -1.6 °C 1009.4 hPa South 8 km/h 12.9 km/h 90% 0 mm
19:14 -0.1 °C -1.5 °C 1009.4 hPa South 6.4 km/h 12.9 km/h 90% 0 mm
19:19 -0.1 °C -1.5 °C 1009.4 hPa SSW 8 km/h 16.1 km/h 90% 0 mm
19:24 -0.1 °C -1.5 °C 1009 hPa South 6.4 km/h 16.1 km/h 90% 0 mm
19:29 -0.1 °C -1.5 °C 1009 hPa South 6.4 km/h 16.1 km/h 90% 0 mm
19:34 0 °C -1.3 °C 1009 hPa South 8 km/h 17.7 km/h 91% 0 mm
19:39 0 °C -1.3 °C 1009 hPa South 4.8 km/h 17.7 km/h 91% 0 mm
19:44 0 °C -1.3 °C 1009 hPa South 4.8 km/h 12.9 km/h 91% 0 mm
19:49 0 °C -1.3 °C 1009 hPa SSW 4.8 km/h 11.3 km/h 91% 0 mm
19:54 0 °C -1.3 °C 1009 hPa SSW 3.2 km/h 12.9 km/h 91% 0 mm
19:59 0 °C -1.3 °C 1009 hPa SSW 6.4 km/h 12.9 km/h 91% 0 mm
20:04 0 °C -1.3 °C 1009 hPa SSW 4.8 km/h 11.3 km/h 91% 0 mm
20:09 0.1 °C -1.2 °C 1009 hPa South 3.2 km/h 11.3 km/h 91% 0 mm
20:14 0.1 °C -1.2 °C 1009 hPa SSW 4.8 km/h 11.3 km/h 91% 0 mm
20:19 0.1 °C -1.2 °C 1009 hPa SSW 6.4 km/h 11.3 km/h 91% 0 mm
20:24 0.1 °C -1.2 °C 1008.7 hPa SSW 6.4 km/h 12.9 km/h 91% 0 mm
20:30 0.1 °C -1.2 °C 1008.7 hPa SSW 4.8 km/h 12.9 km/h 91% 0 mm
20:34 0.1 °C -1.2 °C 1009 hPa South 4.8 km/h 12.9 km/h 91% 0 mm
20:39 0.2 °C -1.1 °C 1008.7 hPa South 4.8 km/h 12.9 km/h 91% 0 mm
20:44 0.2 °C -1.1 °C 1008.7 hPa SSW 4.8 km/h 9.7 km/h 91% 0 mm
20:49 0.2 °C -0.9 °C 1008.7 hPa SSW 4.8 km/h 12.9 km/h 92% 0 mm
20:54 0.3 °C -0.9 °C 1008.7 hPa South 4.8 km/h 14.5 km/h 92% 0 mm
20:59 0.3 °C -1 °C 1008.7 hPa South 4.8 km/h 14.5 km/h 91% 0 mm
21:04 0.3 °C -0.9 °C 1008.7 hPa SSW 4.8 km/h 11.3 km/h 91% 0 mm
21:09 0.3 °C -0.9 °C 1008.7 hPa SSW 3.2 km/h 12.9 km/h 91% 0 mm
21:14 0.3 °C -1 °C 1008.7 hPa SSW 4.8 km/h 12.9 km/h 91% 0 mm
21:19 0.3 °C -1 °C 1008.7 hPa SSW 6.4 km/h 11.3 km/h 91% 0 mm
21:24 0.3 °C -0.9 °C 1008.4 hPa SSW 6.4 km/h 12.9 km/h 91% 0 mm
21:29 0.3 °C -0.8 °C 1008.7 hPa SSW 4.8 km/h 12.9 km/h 92% 0 mm
21:34 0.3 °C -0.8 °C 1008.4 hPa SSW 4.8 km/h 12.9 km/h 92% 0 mm
21:39 0.3 °C -0.8 °C 1008.4 hPa SSW 6.4 km/h 11.3 km/h 92% 0 mm
21:44 0.4 °C -0.8 °C 1008.4 hPa SSW 1.6 km/h 11.3 km/h 92% 0 mm
21:49 0.4 °C -0.8 °C 1008.4 hPa SSW 4.8 km/h 11.3 km/h 92% 0 mm
21:54 0.4 °C -0.8 °C 1008.4 hPa SSW 6.4 km/h 12.9 km/h 92% 0 mm
21:59 0.4 °C -0.7 °C 1008.4 hPa SSW 4.8 km/h 12.9 km/h 92% 0 mm
22:04 0.4 °C -0.7 °C 1008.7 hPa SSW 6.4 km/h 14.5 km/h 92% 0 mm
22:09 0.4 °C -0.8 °C 1008.4 hPa SSW 4.8 km/h 14.5 km/h 92% 0 mm
22:14 0.4 °C -0.8 °C 1008.7 hPa SW 6.4 km/h 12.9 km/h 92% 0 mm
22:19 0.4 °C -0.8 °C 1008.4 hPa SW 4.8 km/h 14.5 km/h 92% 0 mm
22:24 0.4 °C -0.8 °C 1008.7 hPa SW 3.2 km/h 14.5 km/h 92% 0 mm
22:29 0.4 °C -0.8 °C 1008.4 hPa SSW 6.4 km/h 9.7 km/h 92% 0 mm
22:34 0.3 °C -0.8 °C 1008.4 hPa SSW 4.8 km/h 11.3 km/h 92% 0 mm
22:39 0.3 °C -0.7 °C 1008.4 hPa SW 3.2 km/h 11.3 km/h 93% 0 mm
22:44 0.4 °C -0.6 °C 1008.7 hPa SW 6.4 km/h 9.7 km/h 93% 0 mm
22:49 0.3 °C -0.7 °C 1008.7 hPa SW 4.8 km/h 8 km/h 93% 0 mm
22:54 0.4 °C -0.6 °C 1008.7 hPa SW 8 km/h 9.7 km/h 93% 0 mm
22:59 0.4 °C -0.6 °C 1008.7 hPa SW 4.8 km/h 11.3 km/h 93% 0 mm
23:04 0.4 °C -0.6 °C 1008.7 hPa SSW 4.8 km/h 12.9 km/h 93% 0 mm
23:09 0.4 °C -0.6 °C 1008.7 hPa SSW 8 km/h 16.1 km/h 93% 0 mm
23:14 0.5 °C -0.5 °C 1008.7 hPa SW 3.2 km/h 16.1 km/h 93% 0 mm
23:19 0.6 °C -0.4 °C 1008.7 hPa SW 4.8 km/h 11.3 km/h 93% 0 mm
23:24 0.6 °C -0.4 °C 1008.7 hPa WSW 4.8 km/h 11.3 km/h 93% 0 mm
23:30 0.6 °C -0.4 °C 1008.7 hPa WSW 4.8 km/h 9.7 km/h 93% 0 mm
23:35 0.6 °C -0.4 °C 1008.7 hPa West 6.4 km/h 9.7 km/h 93% 0 mm
23:44 0.6 °C -0.3 °C 1008.7 hPa SW 4.8 km/h 11.3 km/h 94% 0 mm
23:49 0.6 °C -0.3 °C 1009 hPa West 3.2 km/h 11.3 km/h 94% 0 mm
23:54 0.6 °C -0.3 °C 1008.7 hPa WSW 4.8 km/h 8 km/h 94% 0 mm
23:59 0.6 °C -0.2 °C 1008.7 hPa WSW 6.4 km/h 12.9 km/h 94% 0 mm
Westford Weather
Compliments of Weather Underground

 
 
Current Radar Loop:

Copyright © WestfordWeather.net 2007-2014. All rights reserved.